Terminal Aerodrome Forecast
Issued by NWS

Home | Current Version | Previous Version | Text Only | Print | Product List | Glossary On
Versions: 1 2 3 4 5 6 7 8 9 10 11 12 13 14 15 16
260
FTUS43 KDLH 302337
TAFBRD
TAF
KBRD 302337Z 0100/0124 05010G17KT P6SM VCSH OVC050
     FM010500 04013G20KT 3SM -SN OVC015
     FM010900 03015G24KT 2SM -SN OVC007
     FM011600 02015G24KT 3SM -RASN OVC007=

USA.gov is the U.S. government's official web portal to all federal, state and local government web resources and services.